sensor_id;sensor_type;location;lat;lon;timestamp;pressure;altitude;pressure_sealevel;temperature
67515;BMP280;60646;55.802;37.032;2023-03-05T00:00:09;96722.00;;;4.51
67515;BMP280;60646;55.802;37.032;2023-03-05T00:02:39;96737.66;;;4.62
67515;BMP280;60646;55.802;37.032;2023-03-05T00:05:05;96746.81;;;4.61
67515;BMP280;60646;55.802;37.032;2023-03-05T00:07:31;96743.53;;;4.55
67515;BMP280;60646;55.802;37.032;2023-03-05T00:09:59;96753.72;;;4.64
67515;BMP280;60646;55.802;37.032;2023-03-05T00:12:43;96720.53;;;4.37
67515;BMP280;60646;55.802;37.032;2023-03-05T00:15:09;96739.78;;;4.50
67515;BMP280;60646;55.802;37.032;2023-03-05T00:17:35;96741.03;;;4.49
67515;BMP280;60646;55.802;37.032;2023-03-05T00:20:00;96742.53;;;4.45
67515;BMP280;60646;55.802;37.032;2023-03-05T00:22:28;96728.47;;;4.37
67515;BMP280;60646;55.802;37.032;2023-03-05T00:24:54;96743.94;;;4.46
67515;BMP280;60646;55.802;37.032;2023-03-05T00:27:19;96735.59;;;4.42
67515;BMP280;60646;55.802;37.032;2023-03-05T00:29:45;96731.94;;;4.32
67515;BMP280;60646;55.802;37.032;2023-03-05T00:32:11;96719.03;;;4.28
67515;BMP280;60646;55.802;37.032;2023-03-05T00:34:37;96750.25;;;4.43
67515;BMP280;60646;55.802;37.032;2023-03-05T00:37:03;96735.81;;;4.31
67515;BMP280;60646;55.802;37.032;2023-03-05T00:39:29;96730.53;;;4.31
67515;BMP280;60646;55.802;37.032;2023-03-05T00:41:55;96749.03;;;4.44
67515;BMP280;60646;55.802;37.032;2023-03-05T00:44:21;96737.22;;;4.32
67515;BMP280;60646;55.802;37.032;2023-03-05T00:46:48;96741.50;;;4.35
67515;BMP280;60646;55.802;37.032;2023-03-05T00:49:14;96750.53;;;4.39
67515;BMP280;60646;55.802;37.032;2023-03-05T00:51:40;96718.28;;;4.14
67515;BMP280;60646;55.802;37.032;2023-03-05T00:54:06;96724.41;;;4.22
67515;BMP280;60646;55.802;37.032;2023-03-05T00:56:32;96741.28;;;4.33
67515;BMP280;60646;55.802;37.032;2023-03-05T00:58:58;96708.34;;;4.07
67515;BMP280;60646;55.802;37.032;2023-03-05T01:01:24;96712.59;;;4.10
67515;BMP280;60646;55.802;37.032;2023-03-05T01:03:50;96713.81;;;4.09
67515;BMP280;60646;55.802;37.032;2023-03-05T01:06:16;96751.66;;;4.31
67515;BMP280;60646;55.802;37.032;2023-03-05T01:08:43;96751.66;;;4.31
67515;BMP280;60646;55.802;37.032;2023-03-05T01:11:09;96743.31;;;4.27
67515;BMP280;60646;55.802;37.032;2023-03-05T01:13:36;96737.59;;;4.22
67515;BMP280;60646;55.802;37.032;2023-03-05T01:16:03;96751.44;;;4.29
67515;BMP280;60646;55.802;37.032;2023-03-05T01:18:28;96731.69;;;4.16
67515;BMP280;60646;55.802;37.032;2023-03-05T01:20:55;96716.03;;;4.05
67515;BMP280;60646;55.802;37.032;2023-03-05T01:23:20;96738.41;;;4.17
67515;BMP280;60646;55.802;37.032;2023-03-05T01:25:57;96743.50;;;4.29
67515;BMP280;60646;55.802;37.032;2023-03-05T01:28:23;96751.94;;;4.27
67515;BMP280;60646;55.802;37.032;2023-03-05T01:30:49;96722.75;;;4.06
67515;BMP280;60646;55.802;37.032;2023-03-05T01:33:15;96744.13;;;4.21
67515;BMP280;60646;55.802;37.032;2023-03-05T01:35:59;96725.63;;;4.08
67515;BMP280;60646;55.802;37.032;2023-03-05T01:38:25;96732.19;;;4.15
67515;BMP280;60646;55.802;37.032;2023-03-05T01:40:51;96738.84;;;4.21
67515;BMP280;60646;55.802;37.032;2023-03-05T01:43:23;96730.28;;;4.15
67515;BMP280;60646;55.802;37.032;2023-03-05T01:48:47;96742.88;;;4.22
67515;BMP280;60646;55.802;37.032;2023-03-05T01:51:15;96718.47;;;4.03
67515;BMP280;60646;55.802;37.032;2023-03-05T01:53:41;96727.72;;;4.10
67515;BMP280;60646;55.802;37.032;2023-03-05T01:56:08;96709.00;;;3.95
67515;BMP280;60646;55.802;37.032;2023-03-05T01:58:34;96707.06;;;3.95
67515;BMP280;60646;55.802;37.032;2023-03-05T02:01:00;96739.41;;;4.14
67515;BMP280;60646;55.802;37.032;2023-03-05T02:03:26;96715.63;;;4.01
67515;BMP280;60646;55.802;37.032;2023-03-05T02:05:52;96713.28;;;3.98
67515;BMP280;60646;55.802;37.032;2023-03-05T02:08:20;96739.22;;;4.12
67515;BMP280;60646;55.802;37.032;2023-03-05T02:10:51;96715.63;;;4.01
67515;BMP280;60646;55.802;37.032;2023-03-05T02:13:29;96718.75;;;4.00
67515;BMP280;60646;55.802;37.032;2023-03-05T02:15:57;96710.94;;;3.94
67515;BMP280;60646;55.802;37.032;2023-03-05T02:18:25;96715.19;;;3.97
67515;BMP280;60646;55.802;37.032;2023-03-05T02:23:20;96729.66;;;4.09
67515;BMP280;60646;55.802;37.032;2023-03-05T02:25:47;96724.69;;;4.06
67515;BMP280;60646;55.802;37.032;2023-03-05T02:28:26;96739.00;;;4.10
67515;BMP280;60646;55.802;37.032;2023-03-05T02:30:54;96706.88;;;3.93
67515;BMP280;60646;55.802;37.032;2023-03-05T02:33:20;96714.81;;;3.93
67515;BMP280;60646;55.802;37.032;2023-03-05T02:35:47;96700.53;;;3.83
67515;BMP280;60646;55.802;37.032;2023-03-05T02:38:15;96725.16;;;4.04
67515;BMP280;60646;55.802;37.032;2023-03-05T02:40:42;96732.91;;;4.02
67515;BMP280;60646;55.802;37.032;2023-03-05T02:43:08;96720.91;;;4.01
67515;BMP280;60646;55.802;37.032;2023-03-05T02:45:35;96693.41;;;3.78
67515;BMP280;60646;55.802;37.032;2023-03-05T02:48:19;96715.59;;;3.88
67515;BMP280;60646;55.802;37.032;2023-03-05T02:50:46;96730.03;;;4.00
67515;BMP280;60646;55.802;37.032;2023-03-05T02:53:12;96697.50;;;3.79
67515;BMP280;60646;55.802;37.032;2023-03-05T02:55:38;96711.09;;;3.83
67515;BMP280;60646;55.802;37.032;2023-03-05T02:58:04;96706.78;;;3.86
67515;BMP280;60646;55.802;37.032;2023-03-05T03:00:30;96708.47;;;3.83
67515;BMP280;60646;55.802;37.032;2023-03-05T03:02:55;96713.97;;;3.85
67515;BMP280;60646;55.802;37.032;2023-03-05T03:05:21;96691.16;;;3.69
67515;BMP280;60646;55.802;37.032;2023-03-05T03:07:47;96678.34;;;3.60
67515;BMP280;60646;55.802;37.032;2023-03-05T03:10:12;96716.38;;;3.83
67515;BMP280;60646;55.802;37.032;2023-03-05T03:12:39;96714.53;;;3.78
67515;BMP280;60646;55.802;37.032;2023-03-05T03:15:07;96701.72;;;3.69
67515;BMP280;60646;55.802;37.032;2023-03-05T03:17:34;96715.38;;;3.86
67515;BMP280;60646;55.802;37.032;2023-03-05T03:20:02;96689.31;;;3.64
67515;BMP280;60646;55.802;37.032;2023-03-05T03:22:29;96706.41;;;3.76
67515;BMP280;60646;55.802;37.032;2023-03-05T03:24:54;96694.31;;;3.67
67515;BMP280;60646;55.802;37.032;2023-03-05T03:27:21;96698.16;;;3.66
67515;BMP280;60646;55.802;37.032;2023-03-05T03:29:47;96705.56;;;3.68
67515;BMP280;60646;55.802;37.032;2023-03-05T03:32:13;96703.44;;;3.66
67515;BMP280;60646;55.802;37.032;2023-03-05T03:34:39;96688.91;;;3.60
67515;BMP280;60646;55.802;37.032;2023-03-05T03:37:05;96691.34;;;3.58
67515;BMP280;60646;55.802;37.032;2023-03-05T03:39:31;96692.25;;;3.60
67515;BMP280;60646;55.802;37.032;2023-03-05T03:41:57;96691.34;;;3.58
67515;BMP280;60646;55.802;37.032;2023-03-05T03:44:22;96690.19;;;3.53
67515;BMP280;60646;55.802;37.032;2023-03-05T03:46:49;96703.16;;;3.70
67515;BMP280;60646;55.802;37.032;2023-03-05T03:49:24;96703.16;;;3.70
67515;BMP280;60646;55.802;37.032;2023-03-05T03:51:52;96684.19;;;3.53
67515;BMP280;60646;55.802;37.032;2023-03-05T03:54:23;96694.69;;;3.58
67515;BMP280;60646;55.802;37.032;2023-03-05T03:56:50;96688.53;;;3.50
67515;BMP280;60646;55.802;37.032;2023-03-05T03:59:16;96693.75;;;3.56
67515;BMP280;60646;55.802;37.032;2023-03-05T04:01:41;96709.22;;;3.65
67515;BMP280;60646;55.802;37.032;2023-03-05T04:04:09;96713.28;;;3.66
67515;BMP280;60646;55.802;37.032;2023-03-05T04:06:55;96699.25;;;3.58
67515;BMP280;60646;55.802;37.032;2023-03-05T04:09:21;96694.16;;;3.60
67515;BMP280;60646;55.802;37.032;2023-03-05T04:11:47;96681.94;;;3.44
67515;BMP280;60646;55.802;37.032;2023-03-05T04:14:12;96701.00;;;3.50
67515;BMP280;60646;55.802;37.032;2023-03-05T04:16:38;96698.16;;;3.48
67515;BMP280;60646;55.802;37.032;2023-03-05T04:19:04;96718.13;;;3.62
67515;BMP280;60646;55.802;37.032;2023-03-05T04:21:29;96690.06;;;3.46
67515;BMP280;60646;55.802;37.032;2023-03-05T04:23:55;96681.09;;;3.36
67515;BMP280;60646;55.802;37.032;2023-03-05T04:26:21;96717.50;;;3.56
67515;BMP280;60646;55.802;37.032;2023-03-05T04:28:47;96685.13;;;3.37
67515;BMP280;60646;55.802;37.032;2023-03-05T04:31:15;96716.44;;;3.46
67515;BMP280;60646;55.802;37.032;2023-03-05T04:33:41;96730.69;;;3.56
67515;BMP280;60646;55.802;37.032;2023-03-05T04:36:07;96716.94;;;3.44
67515;BMP280;60646;55.802;37.032;2023-03-05T04:38:33;96703.16;;;3.33
67515;BMP280;60646;55.802;37.032;2023-03-05T04:40:58;96707.72;;;3.32
67515;BMP280;60646;55.802;37.032;2023-03-05T04:43:24;96717.22;;;3.41
67515;BMP280;60646;55.802;37.032;2023-03-05T04:45:50;96711.94;;;3.41
67515;BMP280;60646;55.802;37.032;2023-03-05T04:48:21;96701.53;;;3.30
67515;BMP280;60646;55.802;37.032;2023-03-05T04:50:47;96700.34;;;3.31
67515;BMP280;60646;55.802;37.032;2023-03-05T04:53:13;96690.75;;;3.28
67515;BMP280;60646;55.802;37.032;2023-03-05T04:55:39;96697.47;;;3.29
67515;BMP280;60646;55.802;37.032;2023-03-05T04:58:04;96726.13;;;3.38
67515;BMP280;60646;55.802;37.032;2023-03-05T05:00:30;96721.09;;;3.40
67515;BMP280;60646;55.802;37.032;2023-03-05T05:02:56;96723.72;;;3.40
67515;BMP280;60646;55.802;37.032;2023-03-05T05:05:24;96733.97;;;3.43
67515;BMP280;60646;55.802;37.032;2023-03-05T05:07:55;96749.91;;;3.51
67515;BMP280;60646;55.802;37.032;2023-03-05T05:10:22;96721.44;;;3.31
67515;BMP280;60646;55.802;37.032;2023-03-05T05:12:48;96750.19;;;3.47
67515;BMP280;60646;55.802;37.032;2023-03-05T05:15:20;96740.50;;;3.37
67515;BMP280;60646;55.802;37.032;2023-03-05T05:17:46;96761.47;;;3.48
67515;BMP280;60646;55.802;37.032;2023-03-05T05:20:13;96754.78;;;3.47
67515;BMP280;60646;55.802;37.032;2023-03-05T05:22:39;96740.50;;;3.37
67515;BMP280;60646;55.802;37.032;2023-03-05T05:25:06;96762.91;;;3.49
67515;BMP280;60646;55.802;37.032;2023-03-05T05:27:31;96736.25;;;3.34
67515;BMP280;60646;55.802;37.032;2023-03-05T05:29:57;96724.13;;;3.25
67515;BMP280;60646;55.802;37.032;2023-03-05T05:32:24;96745.00;;;3.42
67515;BMP280;60646;55.802;37.032;2023-03-05T05:34:55;96740.09;;;3.33
67515;BMP280;60646;55.802;37.032;2023-03-05T05:37:24;96756.78;;;3.41
67515;BMP280;60646;55.802;37.032;2023-03-05T05:39:50;96735.38;;;3.25
67515;BMP280;60646;55.802;37.032;2023-03-05T05:42:18;96747.50;;;3.34
67515;BMP280;60646;55.802;37.032;2023-03-05T05:44:44;96760.63;;;3.40
67515;BMP280;60646;55.802;37.032;2023-03-05T05:47:11;96772.22;;;3.50
67515;BMP280;60646;55.802;37.032;2023-03-05T05:49:37;96771.44;;;3.55
67515;BMP280;60646;55.802;37.032;2023-03-05T05:52:02;96767.25;;;3.46
67515;BMP280;60646;55.802;37.032;2023-03-05T05:54:28;96779.59;;;3.57
67515;BMP280;60646;55.802;37.032;2023-03-05T05:56:54;96772.44;;;3.52
67515;BMP280;60646;55.802;37.032;2023-03-05T05:59:19;96773.25;;;3.47
67515;BMP280;60646;55.802;37.032;2023-03-05T06:01:45;96760.63;;;3.40
67515;BMP280;60646;55.802;37.032;2023-03-05T06:04:11;96785.78;;;3.59
67515;BMP280;60646;55.802;37.032;2023-03-05T06:06:36;96765.63;;;3.43
67515;BMP280;60646;55.802;37.032;2023-03-05T06:09:03;96798.19;;;3.64
67515;BMP280;60646;55.802;37.032;2023-03-05T06:11:28;96776.09;;;3.49
67515;BMP280;60646;55.802;37.032;2023-03-05T06:13:54;96799.16;;;3.67
67515;BMP280;60646;55.802;37.032;2023-03-05T06:16:22;96789.44;;;3.56
67515;BMP280;60646;55.802;37.032;2023-03-05T06:18:49;96789.13;;;3.60
67515;BMP280;60646;55.802;37.032;2023-03-05T06:21:17;96788.00;;;3.55
67515;BMP280;60646;55.802;37.032;2023-03-05T06:23:45;96786.56;;;3.54
67515;BMP280;60646;55.802;37.032;2023-03-05T06:26:14;96800.13;;;3.64
67515;BMP280;60646;55.802;37.032;2023-03-05T06:28:40;96783.00;;;3.52
67515;BMP280;60646;55.802;37.032;2023-03-05T06:33:33;96806.84;;;3.65
67515;BMP280;60646;55.802;37.032;2023-03-05T06:36:06;96798.72;;;3.63
67515;BMP280;60646;55.802;37.032;2023-03-05T06:38:32;96808.69;;;3.70
67515;BMP280;60646;55.802;37.032;2023-03-05T06:41:02;96826.22;;;3.86
67515;BMP280;60646;55.802;37.032;2023-03-05T06:43:31;96809.19;;;3.68
67515;BMP280;60646;55.802;37.032;2023-03-05T06:46:12;96812.22;;;3.72
67515;BMP280;60646;55.802;37.032;2023-03-05T06:48:38;96804.31;;;3.72
67515;BMP280;60646;55.802;37.032;2023-03-05T06:51:04;96842.41;;;3.96
67515;BMP280;60646;55.802;37.032;2023-03-05T06:53:30;96840.19;;;4.00
67515;BMP280;60646;55.802;37.032;2023-03-05T06:55:56;96803.41;;;3.70
67515;BMP280;60646;55.802;37.032;2023-03-05T06:58:22;96817.59;;;3.86
67515;BMP280;60646;55.802;37.032;2023-03-05T07:00:48;96837.53;;;4.00
67515;BMP280;60646;55.802;37.032;2023-03-05T07:03:13;96841.31;;;4.04
67515;BMP280;60646;55.802;37.032;2023-03-05T07:05:42;96823.66;;;3.99
67515;BMP280;60646;55.802;37.032;2023-03-05T07:08:08;96838.91;;;4.06
67515;BMP280;60646;55.802;37.032;2023-03-05T07:10:52;96853.59;;;4.20
67515;BMP280;60646;55.802;37.032;2023-03-05T07:13:18;96854.50;;;4.23
67515;BMP280;60646;55.802;37.032;2023-03-05T07:15:44;96846.88;;;4.19
67515;BMP280;60646;55.802;37.032;2023-03-05T07:18:09;96842.59;;;4.16
67515;BMP280;60646;55.802;37.032;2023-03-05T07:20:36;96883.25;;;4.45
67515;BMP280;60646;55.802;37.032;2023-03-05T07:23:02;96875.19;;;4.38
67515;BMP280;60646;55.802;37.032;2023-03-05T07:25:28;96857.09;;;4.29
67515;BMP280;60646;55.802;37.032;2023-03-05T07:27:55;96870.22;;;4.34
67515;BMP280;60646;55.802;37.032;2023-03-05T07:30:21;96882.56;;;4.45
67515;BMP280;60646;55.802;37.032;2023-03-05T07:32:47;96882.56;;;4.45
67515;BMP280;60646;55.802;37.032;2023-03-05T07:35:13;96881.41;;;4.40
67515;BMP280;60646;55.802;37.032;2023-03-05T07:37:39;96894.94;;;4.50
67515;BMP280;60646;55.802;37.032;2023-03-05T07:40:05;96901.34;;;4.54
67515;BMP280;60646;55.802;37.032;2023-03-05T07:42:31;96886.59;;;4.46
67515;BMP280;60646;55.802;37.032;2023-03-05T07:45:09;96917.13;;;4.60
67515;BMP280;60646;55.802;37.032;2023-03-05T07:47:35;96919.63;;;4.71
67515;BMP280;60646;55.802;37.032;2023-03-05T07:50:01;96913.50;;;4.63
67515;BMP280;60646;55.802;37.032;2023-03-05T07:52:29;96920.19;;;4.64
67515;BMP280;60646;55.802;37.032;2023-03-05T07:54:54;96940.88;;;4.79
67515;BMP280;60646;55.802;37.032;2023-03-05T07:57:20;96920.19;;;4.64
67515;BMP280;60646;55.802;37.032;2023-03-05T07:59:46;96923.56;;;4.64
67515;BMP280;60646;55.802;37.032;2023-03-05T08:02:12;96934.78;;;4.70
67515;BMP280;60646;55.802;37.032;2023-03-05T08:04:39;96956.66;;;4.84
67515;BMP280;60646;55.802;37.032;2023-03-05T08:07:06;96960.75;;;4.85
67515;BMP280;60646;55.802;37.032;2023-03-05T08:09:32;96967.44;;;4.86
67515;BMP280;60646;55.802;37.032;2023-03-05T08:11:58;96940.34;;;4.67
67515;BMP280;60646;55.802;37.032;2023-03-05T08:14:24;96946.63;;;4.64
67515;BMP280;60646;55.802;37.032;2023-03-05T08:16:50;96983.81;;;4.85
67515;BMP280;60646;55.802;37.032;2023-03-05T08:19:18;96964.72;;;4.73
67515;BMP280;60646;55.802;37.032;2023-03-05T08:21:45;96970.25;;;4.75
67515;BMP280;60646;55.802;37.032;2023-03-05T08:24:12;97000.59;;;4.87
67515;BMP280;60646;55.802;37.032;2023-03-05T08:26:38;96985.38;;;4.75
67515;BMP280;60646;55.802;37.032;2023-03-05T08:29:06;97008.75;;;4.89
67515;BMP280;60646;55.802;37.032;2023-03-05T08:31:32;96999.97;;;4.81
67515;BMP280;60646;55.802;37.032;2023-03-05T08:33:59;96989.06;;;4.72
67515;BMP280;60646;55.802;37.032;2023-03-05T08:36:25;97010.75;;;4.83
67515;BMP280;60646;55.802;37.032;2023-03-05T08:38:52;96990.19;;;4.76
67515;BMP280;60646;55.802;37.032;2023-03-05T08:41:18;97022.16;;;4.91
67515;BMP280;60646;55.802;37.032;2023-03-05T08:43:47;97021.97;;;4.89
67515;BMP280;60646;55.802;37.032;2023-03-05T08:46:20;97017.75;;;4.81
67515;BMP280;60646;55.802;37.032;2023-03-05T08:48:46;97030.88;;;4.86
67515;BMP280;60646;55.802;37.032;2023-03-05T08:51:18;97039.38;;;4.98
67515;BMP280;60646;55.802;37.032;2023-03-05T08:53:44;97025.69;;;4.81
67515;BMP280;60646;55.802;37.032;2023-03-05T08:56:10;97013.75;;;4.74
67515;BMP280;60646;55.802;37.032;2023-03-05T08:58:36;97043.84;;;4.90
67515;BMP280;60646;55.802;37.032;2023-03-05T09:01:02;97036.63;;;4.90
67515;BMP280;60646;55.802;37.032;2023-03-05T09:03:29;97044.56;;;4.90
67515;BMP280;60646;55.802;37.032;2023-03-05T09:06:00;97067.88;;;5.05
67515;BMP280;60646;55.802;37.032;2023-03-05T09:08:26;97056.75;;;4.93
67515;BMP280;60646;55.802;37.032;2023-03-05T09:10:52;97058.19;;;4.94
67515;BMP280;60646;55.802;37.032;2023-03-05T09:13:18;97061.25;;;4.98
67515;BMP280;60646;55.802;37.032;2023-03-05T09:15:44;97069.91;;;4.99
67515;BMP280;60646;55.802;37.032;2023-03-05T09:18:10;97073.03;;;4.97
67515;BMP280;60646;55.802;37.032;2023-03-05T09:20:36;97056.03;;;4.93
67515;BMP280;60646;55.802;37.032;2023-03-05T09:23:03;97079.19;;;5.05
67515;BMP280;60646;55.802;37.032;2023-03-05T09:25:29;97088.75;;;5.08
67515;BMP280;60646;55.802;37.032;2023-03-05T09:27:55;97092.09;;;5.09
67515;BMP280;60646;55.802;37.032;2023-03-05T09:30:20;97084.34;;;4.98
67515;BMP280;60646;55.802;37.032;2023-03-05T09:32:46;97068.03;;;4.94
67515;BMP280;60646;55.802;37.032;2023-03-05T09:35:12;97088.13;;;5.02
67515;BMP280;60646;55.802;37.032;2023-03-05T09:37:37;97096.06;;;5.02
67515;BMP280;60646;55.802;37.032;2023-03-05T09:40:04;97091.97;;;5.01
67515;BMP280;60646;55.802;37.032;2023-03-05T09:50:37;97103.84;;;4.95
67515;BMP280;60646;55.802;37.032;2023-03-05T09:55:54;97122.41;;;5.08
67515;BMP280;60646;55.802;37.032;2023-03-05T10:08:55;97159.66;;;5.29
67515;BMP280;60646;55.802;37.032;2023-03-05T10:13:55;97145.31;;;5.05
67515;BMP280;60646;55.802;37.032;2023-03-05T10:16:37;97171.94;;;5.26
67515;BMP280;60646;55.802;37.032;2023-03-05T10:22:22;97186.09;;;5.29
67515;BMP280;60646;55.802;37.032;2023-03-05T10:36:20;97206.97;;;5.13
67515;BMP280;60646;55.802;37.032;2023-03-05T10:42:01;97198.41;;;5.07
67515;BMP280;60646;55.802;37.032;2023-03-05T10:44:33;97215.91;;;5.10
67515;BMP280;60646;55.802;37.032;2023-03-05T10:47:01;97210.97;;;5.01
67515;BMP280;60646;55.802;37.032;2023-03-05T10:49:29;97237.75;;;5.16
67515;BMP280;60646;55.802;37.032;2023-03-05T10:52:34;97240.81;;;5.20
67515;BMP280;60646;55.802;37.032;2023-03-05T10:55:12;97227.22;;;5.11
67515;BMP280;60646;55.802;37.032;2023-03-05T10:57:39;97228.41;;;5.10
67515;BMP280;60646;55.802;37.032;2023-03-05T11:02:31;97253.75;;;5.24
67515;BMP280;60646;55.802;37.032;2023-03-05T11:04:57;97236.88;;;5.08
67515;BMP280;60646;55.802;37.032;2023-03-05T11:10:24;97266.69;;;5.28
67515;BMP280;60646;55.802;37.032;2023-03-05T11:12:50;97259.19;;;5.13
67515;BMP280;60646;55.802;37.032;2023-03-05T11:17:43;97274.94;;;5.24
67515;BMP280;60646;55.802;37.032;2023-03-05T11:23:13;97285.63;;;5.32
67515;BMP280;60646;55.802;37.032;2023-03-05T11:25:53;97291.66;;;5.32
67515;BMP280;60646;55.802;37.032;2023-03-05T11:28:40;97269.25;;;5.14
67515;BMP280;60646;55.802;37.032;2023-03-05T11:34:18;97309.19;;;5.35
67515;BMP280;60646;55.802;37.032;2023-03-05T11:39:21;97295.22;;;5.16
67515;BMP280;60646;55.802;37.032;2023-03-05T11:41:51;97328.41;;;5.36
67515;BMP280;60646;55.802;37.032;2023-03-05T11:47:42;97331.84;;;5.31
67515;BMP280;60646;55.802;37.032;2023-03-05T11:50:21;97346.69;;;5.39
67515;BMP280;60646;55.802;37.032;2023-03-05T11:59:38;97348.66;;;5.33
67515;BMP280;60646;55.802;37.032;2023-03-05T12:02:25;97342.44;;;5.31
67515;BMP280;60646;55.802;37.032;2023-03-05T12:04:52;97344.19;;;5.22
67515;BMP280;60646;55.802;37.032;2023-03-05T12:07:36;97354.00;;;5.28
67515;BMP280;60646;55.802;37.032;2023-03-05T12:10:04;97379.91;;;5.35
67515;BMP280;60646;55.802;37.032;2023-03-05T12:15:28;97382.13;;;5.31
67515;BMP280;60646;55.802;37.032;2023-03-05T12:18:19;97367.41;;;5.11
67515;BMP280;60646;55.802;37.032;2023-03-05T12:20:59;97380.59;;;5.16
67515;BMP280;60646;55.802;37.032;2023-03-05T12:23:27;97401.19;;;5.24
67515;BMP280;60646;55.802;37.032;2023-03-05T12:25:55;97378.97;;;5.08
67515;BMP280;60646;55.802;37.032;2023-03-05T12:30:57;97407.91;;;5.25
67515;BMP280;60646;55.802;37.032;2023-03-05T12:33:40;97401.31;;;5.12
67515;BMP280;60646;55.802;37.032;2023-03-05T12:42:46;97428.38;;;5.24
67515;BMP280;60646;55.802;37.032;2023-03-05T12:45:41;97417.63;;;5.16
67515;BMP280;60646;55.802;37.032;2023-03-05T13:03:30;97454.13;;;5.24
67515;BMP280;60646;55.802;37.032;2023-03-05T13:05:58;97456.56;;;5.22
67515;BMP280;60646;55.802;37.032;2023-03-05T13:08:26;97461.84;;;5.22
67515;BMP280;60646;55.802;37.032;2023-03-05T13:11:15;97465.41;;;5.24
67515;BMP280;60646;55.802;37.032;2023-03-05T13:13:47;97461.38;;;5.17
67515;BMP280;60646;55.802;37.032;2023-03-05T13:16:28;97444.88;;;5.06
67515;BMP280;60646;55.802;37.032;2023-03-05T13:18:57;97455.88;;;5.10
67515;BMP280;60646;55.802;37.032;2023-03-05T13:21:27;97481.78;;;5.22
67515;BMP280;60646;55.802;37.032;2023-03-05T13:23:56;97456.00;;;4.99
67515;BMP280;60646;55.802;37.032;2023-03-05T13:26:27;97489.97;;;5.19
67515;BMP280;60646;55.802;37.032;2023-03-05T13:31:46;97498.44;;;5.17
67515;BMP280;60646;55.802;37.032;2023-03-05T13:36:38;97481.47;;;5.02
67515;BMP280;60646;55.802;37.032;2023-03-05T13:39:04;97505.88;;;5.13
67515;BMP280;60646;55.802;37.032;2023-03-05T13:41:31;97497.81;;;5.00
67515;BMP280;60646;55.802;37.032;2023-03-05T13:43:59;97500.25;;;4.98
67515;BMP280;60646;55.802;37.032;2023-03-05T13:46:36;97517.94;;;5.09
67515;BMP280;60646;55.802;37.032;2023-03-05T13:49:26;97499.09;;;4.88
67515;BMP280;60646;55.802;37.032;2023-03-05T13:51:57;97511.41;;;4.86
67515;BMP280;60646;55.802;37.032;2023-03-05T13:54:27;97504.94;;;4.81
67515;BMP280;60646;55.802;37.032;2023-03-05T13:57:04;97525.78;;;4.90
67515;BMP280;60646;55.802;37.032;2023-03-05T13:59:35;97505.00;;;4.70
67515;BMP280;60646;55.802;37.032;2023-03-05T14:02:18;97529.09;;;4.91
67515;BMP280;60646;55.802;37.032;2023-03-05T14:04:45;97521.28;;;4.74
67515;BMP280;60646;55.802;37.032;2023-03-05T14:07:40;97535.13;;;4.91
67515;BMP280;60646;55.802;37.032;2023-03-05T14:10:30;97544.75;;;4.94
67515;BMP280;60646;55.802;37.032;2023-03-05T14:12:57;97505.72;;;4.70
67515;BMP280;60646;55.802;37.032;2023-03-05T14:15:28;97543.28;;;4.93
67515;BMP280;60646;55.802;37.032;2023-03-05T14:18:17;97526.53;;;4.85
67515;BMP280;60646;55.802;37.032;2023-03-05T14:23:43;97549.97;;;5.00
67515;BMP280;60646;55.802;37.032;2023-03-05T14:26:47;97544.22;;;5.01
67515;BMP280;60646;55.802;37.032;2023-03-05T14:29:16;97551.22;;;4.99
67515;BMP280;60646;55.802;37.032;2023-03-05T14:31:49;97551.94;;;4.99
67515;BMP280;60646;55.802;37.032;2023-03-05T14:36:48;97538.78;;;4.88
67515;BMP280;60646;55.802;37.032;2023-03-05T14:40:00;97556.72;;;4.95
67515;BMP280;60646;55.802;37.032;2023-03-05T14:45:08;97548.88;;;4.84
67515;BMP280;60646;55.802;37.032;2023-03-05T14:47:35;97538.13;;;4.77
67515;BMP280;60646;55.802;37.032;2023-03-05T14:50:00;97527.34;;;4.69
67515;BMP280;60646;55.802;37.032;2023-03-05T14:52:26;97564.22;;;4.91
67515;BMP280;60646;55.802;37.032;2023-03-05T14:54:56;97546.72;;;4.88
67515;BMP280;60646;55.802;37.032;2023-03-05T14:57:25;97572.09;;;5.02
67515;BMP280;60646;55.802;37.032;2023-03-05T14:59:51;97566.81;;;5.02
67515;BMP280;60646;55.802;37.032;2023-03-05T15:02:21;97578.84;;;5.03
67515;BMP280;60646;55.802;37.032;2023-03-05T15:04:47;97569.75;;;4.93
67515;BMP280;60646;55.802;37.032;2023-03-05T15:07:22;97562.13;;;4.84
67515;BMP280;60646;55.802;37.032;2023-03-05T15:09:49;97585.91;;;4.90
67515;BMP280;60646;55.802;37.032;2023-03-05T15:12:16;97568.88;;;4.74
67515;BMP280;60646;55.802;37.032;2023-03-05T15:14:42;97582.78;;;4.80
67515;BMP280;60646;55.802;37.032;2023-03-05T15:17:19;97570.81;;;4.68
67515;BMP280;60646;55.802;37.032;2023-03-05T15:19:45;97581.41;;;4.68
67515;BMP280;60646;55.802;37.032;2023-03-05T15:22:12;97604.66;;;4.81
67515;BMP280;60646;55.802;37.032;2023-03-05T15:24:38;97611.63;;;4.78
67515;BMP280;60646;55.802;37.032;2023-03-05T15:27:04;97594.19;;;4.58
67515;BMP280;60646;55.802;37.032;2023-03-05T15:29:31;97604.50;;;4.62
67515;BMP280;60646;55.802;37.032;2023-03-05T15:31:57;97620.84;;;4.72
67515;BMP280;60646;55.802;37.032;2023-03-05T15:34:23;97596.88;;;4.47
67515;BMP280;60646;55.802;37.032;2023-03-05T15:36:48;97608.63;;;4.52
67515;BMP280;60646;55.802;37.032;2023-03-05T15:39:21;97603.59;;;4.54
67515;BMP280;60646;55.802;37.032;2023-03-05T15:41:59;97628.28;;;4.67
67515;BMP280;60646;55.802;37.032;2023-03-05T15:44:25;97605.53;;;4.48
67515;BMP280;60646;55.802;37.032;2023-03-05T15:46:51;97620.13;;;4.54
67515;BMP280;60646;55.802;37.032;2023-03-05T15:49:19;97637.66;;;4.63
67515;BMP280;60646;55.802;37.032;2023-03-05T15:51:47;97639.34;;;4.60
67515;BMP280;60646;55.802;37.032;2023-03-05T15:54:13;97630.97;;;4.51
67515;BMP280;60646;55.802;37.032;2023-03-05T15:56:39;97635.75;;;4.58
67515;BMP280;60646;55.802;37.032;2023-03-05T15:59:11;97630.25;;;4.50
67515;BMP280;60646;55.802;37.032;2023-03-05T16:01:38;97642.00;;;4.55
67515;BMP280;60646;55.802;37.032;2023-03-05T16:04:04;97624.28;;;4.44
67515;BMP280;60646;55.802;37.032;2023-03-05T16:06:31;97625.00;;;4.39
67515;BMP280;60646;55.802;37.032;2023-03-05T16:09:01;97637.22;;;4.48
67515;BMP280;60646;55.802;37.032;2023-03-05T16:11:31;97658.09;;;4.57
67515;BMP280;60646;55.802;37.032;2023-03-05T16:14:01;97635.78;;;4.47